sensor_id;sensor_type;location;lat;lon;timestamp;pressure;altitude;pressure_sealevel;temperature
14023;BMP180;7086;48.116;11.580;2023-07-20T00:02:04;95159.00;;;26.60
14023;BMP180;7086;48.116;11.580;2023-07-20T00:04:32;95158.00;;;26.60
14023;BMP180;7086;48.116;11.580;2023-07-20T00:07:00;95157.00;;;26.60
14023;BMP180;7086;48.116;11.580;2023-07-20T00:09:27;95152.00;;;26.60
14023;BMP180;7086;48.116;11.580;2023-07-20T00:11:54;95170.00;;;26.60
14023;BMP180;7086;48.116;11.580;2023-07-20T00:14:21;95151.00;;;26.60
14023;BMP180;7086;48.116;11.580;2023-07-20T00:16:50;95132.00;;;26.50
14023;BMP180;7086;48.116;11.580;2023-07-20T00:19:20;95146.00;;;26.50
14023;BMP180;7086;48.116;11.580;2023-07-20T00:21:47;95142.00;;;26.50
14023;BMP180;7086;48.116;11.580;2023-07-20T00:24:15;95134.00;;;26.50
14023;BMP180;7086;48.116;11.580;2023-07-20T00:26:43;95152.00;;;26.40
14023;BMP180;7086;48.116;11.580;2023-07-20T00:29:10;95152.00;;;26.40
14023;BMP180;7086;48.116;11.580;2023-07-20T00:31:36;95151.00;;;26.30
14023;BMP180;7086;48.116;11.580;2023-07-20T00:34:03;95136.00;;;26.30
14023;BMP180;7086;48.116;11.580;2023-07-20T00:36:30;95167.00;;;26.30
14023;BMP180;7086;48.116;11.580;2023-07-20T00:38:57;95173.00;;;26.30
14023;BMP180;7086;48.116;11.580;2023-07-20T00:41:25;95175.00;;;26.20
14023;BMP180;7086;48.116;11.580;2023-07-20T00:43:54;95180.00;;;26.20
14023;BMP180;7086;48.116;11.580;2023-07-20T00:46:22;95172.00;;;26.20
14023;BMP180;7086;48.116;11.580;2023-07-20T00:48:49;95170.00;;;26.20
14023;BMP180;7086;48.116;11.580;2023-07-20T00:51:16;95176.00;;;26.20
14023;BMP180;7086;48.116;11.580;2023-07-20T00:53:43;95169.00;;;26.20
14023;BMP180;7086;48.116;11.580;2023-07-20T00:56:10;95174.00;;;26.20
14023;BMP180;7086;48.116;11.580;2023-07-20T00:58:38;95180.00;;;26.20
14023;BMP180;7086;48.116;11.580;2023-07-20T01:01:05;95176.00;;;26.20
14023;BMP180;7086;48.116;11.580;2023-07-20T01:03:32;95185.00;;;26.20
14023;BMP180;7086;48.116;11.580;2023-07-20T01:06:08;95192.00;;;26.20
14023;BMP180;7086;48.116;11.580;2023-07-20T01:08:40;95187.00;;;26.20
14023;BMP180;7086;48.116;11.580;2023-07-20T01:11:14;95179.00;;;26.20
14023;BMP180;7086;48.116;11.580;2023-07-20T01:13:44;95176.00;;;26.20
14023;BMP180;7086;48.116;11.580;2023-07-20T01:16:11;95177.00;;;26.20
14023;BMP180;7086;48.116;11.580;2023-07-20T01:18:38;95172.00;;;26.20
14023;BMP180;7086;48.116;11.580;2023-07-20T01:21:08;95161.00;;;26.20
14023;BMP180;7086;48.116;11.580;2023-07-20T01:27:32;95169.00;;;26.10
14023;BMP180;7086;48.116;11.580;2023-07-20T01:30:20;95175.00;;;26.10
14023;BMP180;7086;48.116;11.580;2023-07-20T01:32:54;95155.00;;;26.10
14023;BMP180;7086;48.116;11.580;2023-07-20T01:35:23;95168.00;;;26.10
14023;BMP180;7086;48.116;11.580;2023-07-20T01:37:51;95156.00;;;26.10
14023;BMP180;7086;48.116;11.580;2023-07-20T01:40:19;95165.00;;;26.10
14023;BMP180;7086;48.116;11.580;2023-07-20T01:42:47;95171.00;;;26.10
14023;BMP180;7086;48.116;11.580;2023-07-20T01:45:14;95178.00;;;26.10
14023;BMP180;7086;48.116;11.580;2023-07-20T01:47:40;95178.00;;;26.10
14023;BMP180;7086;48.116;11.580;2023-07-20T01:50:10;95176.00;;;26.00
14023;BMP180;7086;48.116;11.580;2023-07-20T01:52:36;95180.00;;;26.00
14023;BMP180;7086;48.116;11.580;2023-07-20T01:55:04;95178.00;;;26.00
14023;BMP180;7086;48.116;11.580;2023-07-20T01:57:31;95171.00;;;26.00
14023;BMP180;7086;48.116;11.580;2023-07-20T01:59:58;95175.00;;;26.00
14023;BMP180;7086;48.116;11.580;2023-07-20T02:02:27;95175.00;;;26.00
14023;BMP180;7086;48.116;11.580;2023-07-20T02:04:54;95176.00;;;26.00
14023;BMP180;7086;48.116;11.580;2023-07-20T02:07:22;95183.00;;;25.90
14023;BMP180;7086;48.116;11.580;2023-07-20T02:09:49;95181.00;;;26.00
14023;BMP180;7086;48.116;11.580;2023-07-20T02:12:15;95190.00;;;25.90
14023;BMP180;7086;48.116;11.580;2023-07-20T02:14:42;95185.00;;;25.90
14023;BMP180;7086;48.116;11.580;2023-07-20T02:17:09;95180.00;;;25.90
14023;BMP180;7086;48.116;11.580;2023-07-20T02:19:37;95177.00;;;25.90
14023;BMP180;7086;48.116;11.580;2023-07-20T02:22:04;95183.00;;;25.90
14023;BMP180;7086;48.116;11.580;2023-07-20T02:24:33;95182.00;;;25.90
14023;BMP180;7086;48.116;11.580;2023-07-20T02:27:00;95184.00;;;25.90
14023;BMP180;7086;48.116;11.580;2023-07-20T02:29:26;95186.00;;;25.80
14023;BMP180;7086;48.116;11.580;2023-07-20T02:31:53;95188.00;;;25.80
14023;BMP180;7086;48.116;11.580;2023-07-20T02:34:20;95168.00;;;25.80
14023;BMP180;7086;48.116;11.580;2023-07-20T02:36:46;95168.00;;;25.70
14023;BMP180;7086;48.116;11.580;2023-07-20T02:39:13;95179.00;;;25.70
14023;BMP180;7086;48.116;11.580;2023-07-20T02:41:41;95175.00;;;25.70
14023;BMP180;7086;48.116;11.580;2023-07-20T02:44:08;95171.00;;;25.70
14023;BMP180;7086;48.116;11.580;2023-07-20T02:46:35;95175.00;;;25.70
14023;BMP180;7086;48.116;11.580;2023-07-20T02:49:01;95183.00;;;25.70
14023;BMP180;7086;48.116;11.580;2023-07-20T02:51:28;95178.00;;;25.60
14023;BMP180;7086;48.116;11.580;2023-07-20T02:53:55;95190.00;;;25.60
14023;BMP180;7086;48.116;11.580;2023-07-20T02:56:22;95202.00;;;25.60
14023;BMP180;7086;48.116;11.580;2023-07-20T02:58:51;95209.00;;;25.60
14023;BMP180;7086;48.116;11.580;2023-07-20T03:01:17;95214.00;;;25.50
14023;BMP180;7086;48.116;11.580;2023-07-20T03:03:44;95214.00;;;25.40
14023;BMP180;7086;48.116;11.580;2023-07-20T03:06:12;95215.00;;;25.20
14023;BMP180;7086;48.116;11.580;2023-07-20T03:08:40;95202.00;;;25.00
14023;BMP180;7086;48.116;11.580;2023-07-20T03:11:13;95209.00;;;24.80
14023;BMP180;7086;48.116;11.580;2023-07-20T03:13:40;95215.00;;;24.60
14023;BMP180;7086;48.116;11.580;2023-07-20T03:16:10;95213.00;;;24.40
14023;BMP180;7086;48.116;11.580;2023-07-20T03:18:37;95212.00;;;24.20
14023;BMP180;7086;48.116;11.580;2023-07-20T03:21:03;95214.00;;;24.10
14023;BMP180;7086;48.116;11.580;2023-07-20T03:23:30;95214.00;;;23.90
14023;BMP180;7086;48.116;11.580;2023-07-20T03:25:57;95222.00;;;23.80
14023;BMP180;7086;48.116;11.580;2023-07-20T03:28:24;95227.00;;;23.70
14023;BMP180;7086;48.116;11.580;2023-07-20T03:30:53;95238.00;;;23.60
14023;BMP180;7086;48.116;11.580;2023-07-20T03:33:22;95249.00;;;23.60
14023;BMP180;7086;48.116;11.580;2023-07-20T03:35:48;95234.00;;;23.50
14023;BMP180;7086;48.116;11.580;2023-07-20T03:38:15;95234.00;;;23.40
14023;BMP180;7086;48.116;11.580;2023-07-20T03:40:49;95241.00;;;23.30
14023;BMP180;7086;48.116;11.580;2023-07-20T03:43:16;95244.00;;;23.20
14023;BMP180;7086;48.116;11.580;2023-07-20T03:45:43;95242.00;;;23.10
14023;BMP180;7086;48.116;11.580;2023-07-20T03:48:11;95243.00;;;23.10
14023;BMP180;7086;48.116;11.580;2023-07-20T03:50:39;95229.00;;;23.00
14023;BMP180;7086;48.116;11.580;2023-07-20T03:53:06;95244.00;;;23.00
14023;BMP180;7086;48.116;11.580;2023-07-20T03:55:32;95237.00;;;22.90
14023;BMP180;7086;48.116;11.580;2023-07-20T03:57:59;95236.00;;;22.90
14023;BMP180;7086;48.116;11.580;2023-07-20T04:00:26;95240.00;;;22.90
14023;BMP180;7086;48.116;11.580;2023-07-20T04:02:53;95253.00;;;22.90
14023;BMP180;7086;48.116;11.580;2023-07-20T04:05:20;95233.00;;;23.00
14023;BMP180;7086;48.116;11.580;2023-07-20T04:07:51;95250.00;;;22.90
14023;BMP180;7086;48.116;11.580;2023-07-20T04:10:18;95249.00;;;23.10
14023;BMP180;7086;48.116;11.580;2023-07-20T04:12:45;95250.00;;;23.10
14023;BMP180;7086;48.116;11.580;2023-07-20T04:15:12;95243.00;;;23.10
14023;BMP180;7086;48.116;11.580;2023-07-20T04:17:39;95241.00;;;23.20
14023;BMP180;7086;48.116;11.580;2023-07-20T04:20:07;95241.00;;;23.20
14023;BMP180;7086;48.116;11.580;2023-07-20T04:22:34;95247.00;;;23.30
14023;BMP180;7086;48.116;11.580;2023-07-20T04:25:02;95246.00;;;23.30
14023;BMP180;7086;48.116;11.580;2023-07-20T04:27:29;95247.00;;;23.40
14023;BMP180;7086;48.116;11.580;2023-07-20T04:29:57;95249.00;;;23.40
14023;BMP180;7086;48.116;11.580;2023-07-20T04:32:25;95243.00;;;23.40
14023;BMP180;7086;48.116;11.580;2023-07-20T04:34:52;95255.00;;;23.50
14023;BMP180;7086;48.116;11.580;2023-07-20T04:37:18;95253.00;;;23.50
14023;BMP180;7086;48.116;11.580;2023-07-20T04:39:45;95240.00;;;23.60
14023;BMP180;7086;48.116;11.580;2023-07-20T04:42:14;95253.00;;;23.60
14023;BMP180;7086;48.116;11.580;2023-07-20T04:44:41;95247.00;;;23.60
14023;BMP180;7086;48.116;11.580;2023-07-20T04:47:07;95258.00;;;23.70
14023;BMP180;7086;48.116;11.580;2023-07-20T04:49:36;95258.00;;;23.70
14023;BMP180;7086;48.116;11.580;2023-07-20T04:52:06;95254.00;;;23.70
14023;BMP180;7086;48.116;11.580;2023-07-20T04:54:33;95230.00;;;23.80
14023;BMP180;7086;48.116;11.580;2023-07-20T04:56:59;95247.00;;;23.80
14023;BMP180;7086;48.116;11.580;2023-07-20T04:59:27;95262.00;;;23.90
14023;BMP180;7086;48.116;11.580;2023-07-20T05:01:54;95220.00;;;23.90
14023;BMP180;7086;48.116;11.580;2023-07-20T05:04:21;95260.00;;;24.00
14023;BMP180;7086;48.116;11.580;2023-07-20T05:06:48;95268.00;;;24.00
14023;BMP180;7086;48.116;11.580;2023-07-20T05:09:15;95273.00;;;24.00
14023;BMP180;7086;48.116;11.580;2023-07-20T05:11:42;95268.00;;;24.10
14023;BMP180;7086;48.116;11.580;2023-07-20T05:14:10;95256.00;;;24.10
14023;BMP180;7086;48.116;11.580;2023-07-20T05:16:39;95261.00;;;24.20
14023;BMP180;7086;48.116;11.580;2023-07-20T05:19:05;95270.00;;;24.20
14023;BMP180;7086;48.116;11.580;2023-07-20T05:21:32;95272.00;;;24.20
14023;BMP180;7086;48.116;11.580;2023-07-20T05:23:59;95271.00;;;24.30
14023;BMP180;7086;48.116;11.580;2023-07-20T05:26:26;95250.00;;;24.30
14023;BMP180;7086;48.116;11.580;2023-07-20T05:28:52;95268.00;;;24.30
14023;BMP180;7086;48.116;11.580;2023-07-20T05:31:19;95267.00;;;24.40
14023;BMP180;7086;48.116;11.580;2023-07-20T05:33:48;95268.00;;;24.40
14023;BMP180;7086;48.116;11.580;2023-07-20T05:36:27;95260.00;;;24.50
14023;BMP180;7086;48.116;11.580;2023-07-20T05:38:53;95266.00;;;24.50
14023;BMP180;7086;48.116;11.580;2023-07-20T05:41:20;95268.00;;;24.60
14023;BMP180;7086;48.116;11.580;2023-07-20T05:43:48;95272.00;;;24.60
14023;BMP180;7086;48.116;11.580;2023-07-20T05:46:15;95266.00;;;24.70
14023;BMP180;7086;48.116;11.580;2023-07-20T05:48:41;95265.00;;;24.70
14023;BMP180;7086;48.116;11.580;2023-07-20T05:51:09;95252.00;;;24.60
14023;BMP180;7086;48.116;11.580;2023-07-20T05:53:36;95261.00;;;24.70
14023;BMP180;7086;48.116;11.580;2023-07-20T05:56:04;95260.00;;;24.90
14023;BMP180;7086;48.116;11.580;2023-07-20T05:58:31;95270.00;;;24.90
14023;BMP180;7086;48.116;11.580;2023-07-20T06:00:58;95277.00;;;25.00
14023;BMP180;7086;48.116;11.580;2023-07-20T06:03:24;95282.00;;;25.00
14023;BMP180;7086;48.116;11.580;2023-07-20T06:05:51;95286.00;;;25.00
14023;BMP180;7086;48.116;11.580;2023-07-20T06:08:19;95280.00;;;25.00
14023;BMP180;7086;48.116;11.580;2023-07-20T06:10:49;95301.00;;;25.00
14023;BMP180;7086;48.116;11.580;2023-07-20T06:13:17;95246.00;;;25.10
14023;BMP180;7086;48.116;11.580;2023-07-20T06:15:44;95285.00;;;25.10
14023;BMP180;7086;48.116;11.580;2023-07-20T06:18:12;95284.00;;;25.20
14023;BMP180;7086;48.116;11.580;2023-07-20T06:20:39;95284.00;;;25.30
14023;BMP180;7086;48.116;11.580;2023-07-20T06:23:06;95285.00;;;25.40
14023;BMP180;7086;48.116;11.580;2023-07-20T06:25:34;95286.00;;;25.50
14023;BMP180;7086;48.116;11.580;2023-07-20T06:28:01;95288.00;;;25.60
14023;BMP180;7086;48.116;11.580;2023-07-20T06:30:29;95255.00;;;25.60
14023;BMP180;7086;48.116;11.580;2023-07-20T06:32:56;95293.00;;;25.90
14023;BMP180;7086;48.116;11.580;2023-07-20T06:35:23;95289.00;;;26.00
14023;BMP180;7086;48.116;11.580;2023-07-20T06:37:50;95280.00;;;26.10
14023;BMP180;7086;48.116;11.580;2023-07-20T06:40:17;95278.00;;;26.20
14023;BMP180;7086;48.116;11.580;2023-07-20T06:42:45;95269.00;;;26.20
14023;BMP180;7086;48.116;11.580;2023-07-20T06:45:12;95290.00;;;26.20
14023;BMP180;7086;48.116;11.580;2023-07-20T06:47:39;95279.00;;;26.30
14023;BMP180;7086;48.116;11.580;2023-07-20T06:50:07;95286.00;;;26.30
14023;BMP180;7086;48.116;11.580;2023-07-20T06:52:34;95273.00;;;26.30
14023;BMP180;7086;48.116;11.580;2023-07-20T06:55:01;95285.00;;;26.40
14023;BMP180;7086;48.116;11.580;2023-07-20T06:57:28;95298.00;;;26.50
14023;BMP180;7086;48.116;11.580;2023-07-20T06:59:56;95285.00;;;26.60
14023;BMP180;7086;48.116;11.580;2023-07-20T07:02:23;95269.00;;;26.80
14023;BMP180;7086;48.116;11.580;2023-07-20T07:04:50;95289.00;;;27.10
14023;BMP180;7086;48.116;11.580;2023-07-20T07:07:19;95274.00;;;27.40
14023;BMP180;7086;48.116;11.580;2023-07-20T07:09:45;95262.00;;;27.40
14023;BMP180;7086;48.116;11.580;2023-07-20T07:12:12;95254.00;;;27.70
14023;BMP180;7086;48.116;11.580;2023-07-20T07:14:39;95281.00;;;27.90
14023;BMP180;7086;48.116;11.580;2023-07-20T07:17:08;95278.00;;;28.20
14023;BMP180;7086;48.116;11.580;2023-07-20T07:19:35;95293.00;;;28.60
14023;BMP180;7086;48.116;11.580;2023-07-20T07:22:03;95285.00;;;29.00
14023;BMP180;7086;48.116;11.580;2023-07-20T07:24:31;95286.00;;;29.50
14023;BMP180;7086;48.116;11.580;2023-07-20T07:26:59;95277.00;;;29.90
14023;BMP180;7086;48.116;11.580;2023-07-20T07:29:26;95287.00;;;30.30
14023;BMP180;7086;48.116;11.580;2023-07-20T07:31:53;95278.00;;;30.80
14023;BMP180;7086;48.116;11.580;2023-07-20T07:34:21;95284.00;;;31.20
14023;BMP180;7086;48.116;11.580;2023-07-20T07:36:48;95289.00;;;31.40
14023;BMP180;7086;48.116;11.580;2023-07-20T07:39:15;95290.00;;;31.50
14023;BMP180;7086;48.116;11.580;2023-07-20T07:41:42;95305.00;;;31.40
14023;BMP180;7086;48.116;11.580;2023-07-20T07:44:09;95275.00;;;31.10
14023;BMP180;7086;48.116;11.580;2023-07-20T07:46:36;95296.00;;;31.00
14023;BMP180;7086;48.116;11.580;2023-07-20T07:49:03;95286.00;;;30.90
14023;BMP180;7086;48.116;11.580;2023-07-20T07:51:34;95292.00;;;30.80
14023;BMP180;7086;48.116;11.580;2023-07-20T07:54:01;95292.00;;;30.70
14023;BMP180;7086;48.116;11.580;2023-07-20T07:56:28;95293.00;;;30.60
14023;BMP180;7086;48.116;11.580;2023-07-20T07:58:55;95290.00;;;30.60
14023;BMP180;7086;48.116;11.580;2023-07-20T08:01:22;95283.00;;;30.70
14023;BMP180;7086;48.116;11.580;2023-07-20T08:03:49;95297.00;;;30.70
14023;BMP180;7086;48.116;11.580;2023-07-20T08:06:16;95278.00;;;30.70
14023;BMP180;7086;48.116;11.580;2023-07-20T08:08:44;95298.00;;;30.60
14023;BMP180;7086;48.116;11.580;2023-07-20T08:11:11;95300.00;;;30.50
14023;BMP180;7086;48.116;11.580;2023-07-20T08:13:38;95298.00;;;30.50
14023;BMP180;7086;48.116;11.580;2023-07-20T08:16:05;95298.00;;;30.60
14023;BMP180;7086;48.116;11.580;2023-07-20T08:18:32;95303.00;;;30.60
14023;BMP180;7086;48.116;11.580;2023-07-20T08:20:59;95302.00;;;30.60
14023;BMP180;7086;48.116;11.580;2023-07-20T08:23:26;95314.00;;;30.60
14023;BMP180;7086;48.116;11.580;2023-07-20T08:25:55;95297.00;;;30.70
14023;BMP180;7086;48.116;11.580;2023-07-20T08:28:22;95287.00;;;30.80
14023;BMP180;7086;48.116;11.580;2023-07-20T08:30:49;95300.00;;;30.90
14023;BMP180;7086;48.116;11.580;2023-07-20T08:33:17;95319.00;;;30.90
14023;BMP180;7086;48.116;11.580;2023-07-20T08:35:45;95311.00;;;30.90
14023;BMP180;7086;48.116;11.580;2023-07-20T08:38:12;95282.00;;;31.00
14023;BMP180;7086;48.116;11.580;2023-07-20T08:40:41;95305.00;;;31.10
14023;BMP180;7086;48.116;11.580;2023-07-20T08:43:10;95288.00;;;31.30
14023;BMP180;7086;48.116;11.580;2023-07-20T08:45:39;95294.00;;;31.70
14023;BMP180;7086;48.116;11.580;2023-07-20T08:48:07;95300.00;;;32.00
14023;BMP180;7086;48.116;11.580;2023-07-20T08:50:35;95305.00;;;32.30
14023;BMP180;7086;48.116;11.580;2023-07-20T08:53:02;95307.00;;;32.30
14023;BMP180;7086;48.116;11.580;2023-07-20T08:55:30;95307.00;;;32.40
14023;BMP180;7086;48.116;11.580;2023-07-20T08:57:58;95300.00;;;32.40
14023;BMP180;7086;48.116;11.580;2023-07-20T09:00:27;95324.00;;;32.40
14023;BMP180;7086;48.116;11.580;2023-07-20T09:02:55;95296.00;;;32.50
14023;BMP180;7086;48.116;11.580;2023-07-20T09:05:23;95309.00;;;32.50
14023;BMP180;7086;48.116;11.580;2023-07-20T09:07:53;95303.00;;;32.60
14023;BMP180;7086;48.116;11.580;2023-07-20T09:10:21;95302.00;;;32.80
14023;BMP180;7086;48.116;11.580;2023-07-20T09:12:48;95295.00;;;32.90
14023;BMP180;7086;48.116;11.580;2023-07-20T09:15:15;95296.00;;;33.20
14023;BMP180;7086;48.116;11.580;2023-07-20T09:17:49;95263.00;;;33.30
14023;BMP180;7086;48.116;11.580;2023-07-20T09:20:17;95284.00;;;33.60
14023;BMP180;7086;48.116;11.580;2023-07-20T09:22:44;95278.00;;;33.80
14023;BMP180;7086;48.116;11.580;2023-07-20T09:25:12;95280.00;;;34.20
14023;BMP180;7086;48.116;11.580;2023-07-20T09:27:41;95289.00;;;34.50
14023;BMP180;7086;48.116;11.580;2023-07-20T09:30:09;95251.00;;;35.00
14023;BMP180;7086;48.116;11.580;2023-07-20T09:32:39;95284.00;;;35.20
14023;BMP180;7086;48.116;11.580;2023-07-20T09:35:12;95279.00;;;35.20
14023;BMP180;7086;48.116;11.580;2023-07-20T09:37:41;95283.00;;;35.30
14023;BMP180;7086;48.116;11.580;2023-07-20T09:40:15;95292.00;;;35.40
14023;BMP180;7086;48.116;11.580;2023-07-20T09:42:42;95299.00;;;35.50
14023;BMP180;7086;48.116;11.580;2023-07-20T09:45:09;95289.00;;;35.90
14023;BMP180;7086;48.116;11.580;2023-07-20T09:47:37;95281.00;;;36.20
14023;BMP180;7086;48.116;11.580;2023-07-20T09:50:05;95280.00;;;36.40
14023;BMP180;7086;48.116;11.580;2023-07-20T09:52:38;95288.00;;;36.40
14023;BMP180;7086;48.116;11.580;2023-07-20T09:55:07;95279.00;;;36.40
14023;BMP180;7086;48.116;11.580;2023-07-20T09:57:34;95276.00;;;36.30
14023;BMP180;7086;48.116;11.580;2023-07-20T10:00:03;95287.00;;;36.20
14023;BMP180;7086;48.116;11.580;2023-07-20T10:02:37;95290.00;;;36.20
14023;BMP180;7086;48.116;11.580;2023-07-20T10:05:08;95291.00;;;36.00
14023;BMP180;7086;48.116;11.580;2023-07-20T10:07:43;95272.00;;;35.60
14023;BMP180;7086;48.116;11.580;2023-07-20T10:10:10;95277.00;;;35.10
14023;BMP180;7086;48.116;11.580;2023-07-20T10:12:39;95291.00;;;34.80
14023;BMP180;7086;48.116;11.580;2023-07-20T10:15:11;95294.00;;;34.50
14023;BMP180;7086;48.116;11.580;2023-07-20T10:17:47;95285.00;;;34.10
14023;BMP180;7086;48.116;11.580;2023-07-20T10:20:20;95279.00;;;33.90
14023;BMP180;7086;48.116;11.580;2023-07-20T10:22:57;95283.00;;;33.50
14023;BMP180;7086;48.116;11.580;2023-07-20T10:25:24;95276.00;;;33.40
14023;BMP180;7086;48.116;11.580;2023-07-20T10:27:51;95279.00;;;33.20
14023;BMP180;7086;48.116;11.580;2023-07-20T10:30:21;95282.00;;;33.00
14023;BMP180;7086;48.116;11.580;2023-07-20T10:32:49;95281.00;;;32.70
14023;BMP180;7086;48.116;11.580;2023-07-20T10:35:18;95254.00;;;32.40
14023;BMP180;7086;48.116;11.580;2023-07-20T10:37:54;95286.00;;;32.00
14023;BMP180;7086;48.116;11.580;2023-07-20T10:40:28;95273.00;;;31.80
14023;BMP180;7086;48.116;11.580;2023-07-20T10:43:00;95272.00;;;31.70
14023;BMP180;7086;48.116;11.580;2023-07-20T10:45:34;95263.00;;;31.80
14023;BMP180;7086;48.116;11.580;2023-07-20T10:48:06;95270.00;;;32.20
14023;BMP180;7086;48.116;11.580;2023-07-20T10:50:33;95262.00;;;32.70
14023;BMP180;7086;48.116;11.580;2023-07-20T10:53:15;95259.00;;;33.10
14023;BMP180;7086;48.116;11.580;2023-07-20T10:55:43;95262.00;;;33.30
14023;BMP180;7086;48.116;11.580;2023-07-20T10:58:16;95265.00;;;33.40
14023;BMP180;7086;48.116;11.580;2023-07-20T11:01:00;95270.00;;;33.20
14023;BMP180;7086;48.116;11.580;2023-07-20T11:03:27;95269.00;;;33.00
14023;BMP180;7086;48.116;11.580;2023-07-20T11:05:56;95243.00;;;32.90
14023;BMP180;7086;48.116;11.580;2023-07-20T11:11:24;95235.00;;;32.90
14023;BMP180;7086;48.116;11.580;2023-07-20T11:13:55;95242.00;;;33.10
14023;BMP180;7086;48.116;11.580;2023-07-20T11:16:33;95251.00;;;33.20
14023;BMP180;7086;48.116;11.580;2023-07-20T11:19:01;95237.00;;;33.10
14023;BMP180;7086;48.116;11.580;2023-07-20T11:21:28;95237.00;;;33.00
14023;BMP180;7086;48.116;11.580;2023-07-20T11:23:56;95241.00;;;32.80
14023;BMP180;7086;48.116;11.580;2023-07-20T11:26:24;95211.00;;;32.60
14023;BMP180;7086;48.116;11.580;2023-07-20T11:28:51;95192.00;;;32.60
14023;BMP180;7086;48.116;11.580;2023-07-20T11:31:18;95238.00;;;32.60
14023;BMP180;7086;48.116;11.580;2023-07-20T11:33:46;95238.00;;;32.60
14023;BMP180;7086;48.116;11.580;2023-07-20T11:36:13;95230.00;;;32.50
14023;BMP180;7086;48.116;11.580;2023-07-20T11:38:45;95232.00;;;32.30
14023;BMP180;7086;48.116;11.580;2023-07-20T11:41:12;95234.00;;;32.20
14023;BMP180;7086;48.116;11.580;2023-07-20T11:43:45;95227.00;;;32.20
14023;BMP180;7086;48.116;11.580;2023-07-20T11:46:15;95182.00;;;32.20
14023;BMP180;7086;48.116;11.580;2023-07-20T11:48:42;95231.00;;;32.20
14023;BMP180;7086;48.116;11.580;2023-07-20T11:51:13;95227.00;;;32.20
14023;BMP180;7086;48.116;11.580;2023-07-20T11:53:40;95218.00;;;32.20
14023;BMP180;7086;48.116;11.580;2023-07-20T11:56:09;95219.00;;;32.20
14023;BMP180;7086;48.116;11.580;2023-07-20T11:58:43;95182.00;;;32.20
14023;BMP180;7086;48.116;11.580;2023-07-20T12:01:12;95205.00;;;32.20
14023;BMP180;7086;48.116;11.580;2023-07-20T12:03:39;95168.00;;;32.20
14023;BMP180;7086;48.116;11.580;2023-07-20T12:06:07;95209.00;;;32.20
14023;BMP180;7086;48.116;11.580;2023-07-20T12:08:34;95187.00;;;32.20
14023;BMP180;7086;48.116;11.580;2023-07-20T12:11:01;95206.00;;;32.30
14023;BMP180;7086;48.116;11.580;2023-07-20T12:13:38;95189.00;;;32.30
14023;BMP180;7086;48.116;11.580;2023-07-20T12:16:14;95172.00;;;32.30
14023;BMP180;7086;48.116;11.580;2023-07-20T12:18:41;95181.00;;;32.20
14023;BMP180;7086;48.116;11.580;2023-07-20T12:21:10;95195.00;;;32.30
14023;BMP180;7086;48.116;11.580;2023-07-20T12:23:39;95190.00;;;32.20
14023;BMP180;7086;48.116;11.580;2023-07-20T12:26:07;95191.00;;;32.20
14023;BMP180;7086;48.116;11.580;2023-07-20T12:28:38;95197.00;;;32.30
14023;BMP180;7086;48.116;11.580;2023-07-20T12:31:06;95182.00;;;32.30
14023;BMP180;7086;48.116;11.580;2023-07-20T12:33:35;95195.00;;;32.40
14023;BMP180;7086;48.116;11.580;2023-07-20T12:36:02;95171.00;;;32.30
14023;BMP180;7086;48.116;11.580;2023-07-20T12:38:29;95164.00;;;32.30
14023;BMP180;7086;48.116;11.580;2023-07-20T12:40:57;95168.00;;;32.30
14023;BMP180;7086;48.116;11.580;2023-07-20T12:43:25;95141.00;;;32.20
14023;BMP180;7086;48.116;11.580;2023-07-20T12:45:52;95157.00;;;32.10
14023;BMP180;7086;48.116;11.580;2023-07-20T12:48:20;95151.00;;;32.10
14023;BMP180;7086;48.116;11.580;2023-07-20T12:50:48;95131.00;;;32.10
14023;BMP180;7086;48.116;11.580;2023-07-20T12:53:16;95162.00;;;32.20
14023;BMP180;7086;48.116;11.580;2023-07-20T12:55:43;95157.00;;;32.20
14023;BMP180;7086;48.116;11.580;2023-07-20T12:58:11;95155.00;;;32.30
14023;BMP180;7086;48.116;11.580;2023-07-20T13:00:38;95158.00;;;32.30
14023;BMP180;7086;48.116;11.580;2023-07-20T13:03:06;95150.00;;;32.40
14023;BMP180;7086;48.116;11.580;2023-07-20T13:05:34;95143.00;;;32.40
14023;BMP180;7086;48.116;11.580;2023-07-20T13:08:02;95141.00;;;32.40
14023;BMP180;7086;48.116;11.580;2023-07-20T13:10:30;95147.00;;;32.40
14023;BMP180;7086;48.116;11.580;2023-07-20T13:12:57;95136.00;;;32.30
14023;BMP180;7086;48.116;11.580;2023-07-20T13:15:29;95138.00;;;32.40
14023;BMP180;7086;48.116;11.580;2023-07-20T13:17:56;95153.00;;;32.30
14023;BMP180;7086;48.116;11.580;2023-07-20T13:20:24;95127.00;;;32.40
14023;BMP180;7086;48.116;11.580;2023-07-20T13:22:51;95129.00;;;32.30
14023;BMP180;7086;48.116;11.580;2023-07-20T13:25:20;95140.00;;;32.30
14023;BMP180;7086;48.116;11.580;2023-07-20T13:27:47;95131.00;;;32.40
14023;BMP180;7086;48.116;11.580;2023-07-20T13:30:14;95127.00;;;32.40
14023;BMP180;7086;48.116;11.580;2023-07-20T13:32:42;95121.00;;;32.40
14023;BMP180;7086;48.116;11.580;2023-07-20T13:35:09;95115.00;;;32.40
14023;BMP180;7086;48.116;11.580;2023-07-20T13:37:36;95150.00;;;32.30
14023;BMP180;7086;48.116;11.580;2023-07-20T13:40:03;95106.00;;;32.30
14023;BMP180;7086;48.116;11.580;2023-07-20T13:42:32;95125.00;;;32.40
14023;BMP180;7086;48.116;11.580;2023-07-20T13:45:02;95101.00;;;32.50
14023;BMP180;7086;48.116;11.580;2023-07-20T13:47:29;95113.00;;;32.50
14023;BMP180;7086;48.116;11.580;2023-07-20T13:49:56;95113.00;;;32.60
14023;BMP180;7086;48.116;11.580;2023-07-20T13:52:23;95108.00;;;32.50
14023;BMP180;7086;48.116;11.580;2023-07-20T13:54:50;95092.00;;;32.50
14023;BMP180;7086;48.116;11.580;2023-07-20T13:57:17;95114.00;;;32.40
14023;BMP180;7086;48.116;11.580;2023-07-20T13:59:45;95103.00;;;32.40
14023;BMP180;7086;48.116;11.580;2023-07-20T14:02:14;95104.00;;;32.40
14023;BMP180;7086;48.116;11.580;2023-07-20T14:04:41;95093.00;;;32.40
14023;BMP180;7086;48.116;11.580;2023-07-20T14:07:08;95091.00;;;32.40
14023;BMP180;7086;48.116;11.580;2023-07-20T14:09:34;95084.00;;;32.30
14023;BMP180;7086;48.116;11.580;2023-07-20T14:12:01;95070.00;;;32.30
14023;BMP180;7086;48.116;11.580;2023-07-20T14:14:28;95085.00;;;32.20
14023;BMP180;7086;48.116;11.580;2023-07-20T14:16:56;95087.00;;;32.20
14023;BMP180;7086;48.116;11.580;2023-07-20T14:19:23;95068.00;;;32.20
14023;BMP180;7086;48.116;11.580;2023-07-20T14:21:50;95068.00;;;32.10